Time;durP1;ratioP1;P1;durP2;ratioP2;P2;SDS_P1;SDS_P2;PMS_P1;PMS_P2;Temp;Humidity;BMP_temperature;BMP_pressure;BME280_temperature;BME280_humidity;BME280_pressure;Samples;Min_cycle;Max_cycle;Signal;HPM_P1;HPM_P2
2021/07/28 00:02:17;;;;;;;9.20;5.57;;;;;;;;;;5055154;28;20580;-66
2021/07/28 00:04:43;;;;;;;14.05;5.85;;;;;;;;;;5072436;28;20025;-66
2021/07/28 00:07:09;;;;;;;7.68;4.72;;;;;;;;;;5054778;28;20480;-66
2021/07/28 00:09:36;;;;;;;9.38;5.07;;;;;;;;;;5073043;28;20031;-65
2021/07/28 00:12:02;;;;;;;7.53;4.40;;;;;;;;;;5072916;28;20082;-66
2021/07/28 00:14:28;;;;;;;7.20;4.28;;;;;;;;;;5072930;28;20129;-66
2021/07/28 00:16:54;;;;;;;9.77;6.13;;;;;;;;;;5054592;28;20365;-66
2021/07/28 00:19:28;;;;;;;10.43;6.38;;;;;;;;;;5054596;28;20032;-66
2021/07/28 00:24:38;;;;;;;8.55;5.20;;;;;;;;;;5073038;28;20106;-67
2021/07/28 00:27:06;;;;;;;10.13;6.07;;;;;;;;;;5054454;28;20055;-66
2021/07/28 00:29:32;;;;;;;8.95;5.25;;;;;;;;;;5072656;28;20016;-66
2021/07/28 00:31:58;;;;;;;9.73;5.90;;;;;;;;;;5072353;28;20017;-66
2021/07/28 00:34:24;;;;;;;9.85;6.00;;;;;;;;;;5071996;28;20127;-66
2021/07/28 00:36:50;;;;;;;9.55;5.90;;;;;;;;;;5054187;28;20044;-66
2021/07/28 00:39:16;;;;;;;8.75;5.20;;;;;;;;;;5054600;28;20472;-68
2021/07/28 00:41:43;;;;;;;9.13;5.60;;;;;;;;;;5072326;28;20021;-66
2021/07/28 00:44:09;;;;;;;11.35;6.03;;;;;;;;;;5054244;28;20048;-66
2021/07/28 00:46:35;;;;;;;9.85;5.65;;;;;;;;;;5072064;28;20028;-66
2021/07/28 00:49:01;;;;;;;9.88;6.10;;;;;;;;;;5072238;28;20477;-66
2021/07/28 00:51:27;;;;;;;9.32;5.43;;;;;;;;;;5072122;28;20025;-66
2021/07/28 00:53:53;;;;;;;8.73;5.15;;;;;;;;;;5072327;28;20369;-66
2021/07/28 00:56:19;;;;;;;10.02;6.00;;;;;;;;;;5053866;28;20074;-66
2021/07/28 00:58:46;;;;;;;13.38;6.53;;;;;;;;;;5072214;28;20198;-67
2021/07/28 01:01:12;;;;;;;7.80;4.65;;;;;;;;;;5054527;28;20028;-66
2021/07/28 01:03:39;;;;;;;9.13;5.45;;;;;;;;;;5072309;28;20035;-66
2021/07/28 01:06:07;;;;;;;9.48;5.93;;;;;;;;;;5071801;28;20480;-66
2021/07/28 01:08:34;;;;;;;7.82;4.70;;;;;;;;;;5071725;28;20115;-66
2021/07/28 01:11:02;;;;;;;10.73;6.65;;;;;;;;;;5053857;28;20056;-66
2021/07/28 01:13:31;;;;;;;8.30;5.00;;;;;;;;;;5072502;28;20071;-66
2021/07/28 01:16:05;;;;;;;9.18;5.82;;;;;;;;;;5071087;28;20031;-66
2021/07/28 01:18:31;;;;;;;8.95;5.25;;;;;;;;;;5072000;28;20024;-66
2021/07/28 01:20:57;;;;;;;8.23;4.88;;;;;;;;;;5072227;28;20032;-66
2021/07/28 01:23:24;;;;;;;9.35;5.68;;;;;;;;;;5072044;28;20481;-67
2021/07/28 01:25:51;;;;;;;10.20;6.30;;;;;;;;;;5053594;28;20035;-65
2021/07/28 01:28:17;;;;;;;9.55;5.65;;;;;;;;;;5071814;28;20060;-65
2021/07/28 01:30:44;;;;;;;8.10;4.82;;;;;;;;;;5072126;28;20035;-65
2021/07/28 01:33:10;;;;;;;9.63;5.85;;;;;;;;;;5053989;28;20021;-65
2021/07/28 01:35:37;;;;;;;10.07;6.18;;;;;;;;;;5071426;28;20028;-65
2021/07/28 01:38:05;;;;;;;10.57;5.95;;;;;;;;;;5072091;28;20066;-65
2021/07/28 01:40:36;;;;;;;10.98;7.43;;;;;;;;;;5053824;28;20024;-65
2021/07/28 01:43:11;;;;;;;9.05;5.45;;;;;;;;;;5053929;28;20488;-65
2021/07/28 01:45:37;;;;;;;8.57;5.10;;;;;;;;;;5051316;28;20044;-65
2021/07/28 01:48:03;;;;;;;8.55;5.07;;;;;;;;;;5033694;28;20400;-65
2021/07/28 01:50:29;;;;;;;9.02;5.55;;;;;;;;;;5052011;28;20389;-66
2021/07/28 01:53:00;;;;;;;9.82;6.13;;;;;;;;;;5051545;28;20036;-65
2021/07/28 01:55:26;;;;;;;10.45;6.50;;;;;;;;;;5051357;28;20050;-65
2021/07/28 01:57:52;;;;;;;9.50;5.80;;;;;;;;;;5033965;28;20123;-65
2021/07/28 02:00:18;;;;;;;9.57;5.57;;;;;;;;;;5034401;28;20025;-65
2021/07/28 02:02:44;;;;;;;9.32;5.82;;;;;;;;;;5053782;28;20028;-65
2021/07/28 02:05:11;;;;;;;9.73;5.90;;;;;;;;;;5071814;28;20349;-65
2021/07/28 02:07:37;;;;;;;9.07;5.35;;;;;;;;;;5071717;28;20444;-65
2021/07/28 02:10:03;;;;;;;8.48;5.07;;;;;;;;;;5053932;28;20048;-65
2021/07/28 02:12:29;;;;;;;9.07;5.40;;;;;;;;;;5053858;28;20028;-67
2021/07/28 02:14:55;;;;;;;11.05;7.22;;;;;;;;;;5053745;28;20021;-65
2021/07/28 02:17:21;;;;;;;9.10;5.47;;;;;;;;;;5053256;28;20035;-65
2021/07/28 02:19:47;;;;;;;10.07;5.90;;;;;;;;;;5053144;28;20024;-65
2021/07/28 02:22:13;;;;;;;9.13;5.40;;;;;;;;;;5053451;28;20029;-67
2021/07/28 02:24:40;;;;;;;9.55;5.68;;;;;;;;;;5071470;28;20029;-66
2021/07/28 02:27:06;;;;;;;8.82;5.32;;;;;;;;;;5055434;28;20025;-66
2021/07/28 02:29:33;;;;;;;9.82;6.15;;;;;;;;;;5075089;28;20396;-67
2021/07/28 02:31:59;;;;;;;10.82;6.38;;;;;;;;;;5075181;28;20095;-66
2021/07/28 02:34:25;;;;;;;8.82;5.20;;;;;;;;;;5074828;28;20054;-66
2021/07/28 02:36:51;;;;;;;9.13;5.50;;;;;;;;;;5074741;28;20028;-66
2021/07/28 02:39:17;;;;;;;9.10;5.45;;;;;;;;;;5057548;28;20025;-66
2021/07/28 02:41:43;;;;;;;11.93;5.90;;;;;;;;;;5074870;28;20029;-66
2021/07/28 02:44:09;;;;;;;11.45;7.75;;;;;;;;;;5057061;28;20031;-66
2021/07/28 02:46:35;;;;;;;10.68;6.43;;;;;;;;;;5066660;22;20106;-53
2021/07/28 02:49:01;;;;;;;10.45;6.43;;;;;;;;;;5034664;28;20033;-59
2021/07/28 02:51:27;;;;;;;9.98;5.97;;;;;;;;;;5035470;28;20057;-60
2021/07/28 02:53:53;;;;;;;10.75;6.90;;;;;;;;;;5034372;28;20478;-60
2021/07/28 02:56:19;;;;;;;13.77;8.63;;;;;;;;;;5032734;28;20079;-63
2021/07/28 02:58:45;;;;;;;10.43;6.30;;;;;;;;;;5033101;28;20048;-62
2021/07/28 03:01:11;;;;;;;10.32;6.32;;;;;;;;;;5034126;28;20173;-61
2021/07/28 03:03:37;;;;;;;10.45;6.90;;;;;;;;;;5033131;28;20029;-60
2021/07/28 03:06:03;;;;;;;9.77;5.80;;;;;;;;;;5034032;28;20053;-59
2021/07/28 03:08:29;;;;;;;10.10;6.00;;;;;;;;;;5033703;28;20379;-59
2021/07/28 03:10:55;;;;;;;11.52;6.90;;;;;;;;;;5034238;28;20100;-61
2021/07/28 03:13:21;;;;;;;10.45;6.43;;;;;;;;;;5033202;28;20018;-62
2021/07/28 03:15:50;;;;;;;13.13;6.90;;;;;;;;;;5033843;28;20021;-61
2021/07/28 03:18:16;;;;;;;9.88;5.93;;;;;;;;;;5034362;28;20584;-61
2021/07/28 03:20:43;;;;;;;12.35;7.75;;;;;;;;;;5034056;28;20041;-63
2021/07/28 03:23:09;;;;;;;11.35;6.97;;;;;;;;;;5032681;28;20116;-61
2021/07/28 03:25:35;;;;;;;11.43;6.78;;;;;;;;;;5033377;28;20060;-63
2021/07/28 03:28:01;;;;;;;10.50;6.32;;;;;;;;;;5033921;28;20025;-62
2021/07/28 03:30:27;;;;;;;11.20;6.72;;;;;;;;;;5033004;28;20079;-63
2021/07/28 03:32:53;;;;;;;10.90;6.47;;;;;;;;;;5032355;28;20064;-61
2021/07/28 03:35:19;;;;;;;11.00;6.50;;;;;;;;;;5032625;28;20061;-61
2021/07/28 03:37:45;;;;;;;12.98;7.03;;;;;;;;;;5031695;28;20581;-62
2021/07/28 03:40:11;;;;;;;13.05;8.13;;;;;;;;;;5033952;28;20100;-63
2021/07/28 03:42:38;;;;;;;11.85;7.60;;;;;;;;;;5015552;28;20037;-60
2021/07/28 03:45:04;;;;;;;11.05;6.55;;;;;;;;;;5027095;28;20509;-62
2021/07/28 03:47:30;;;;;;;9.80;5.80;;;;;;;;;;5013405;28;20034;-57
2021/07/28 03:49:56;;;;;;;10.30;6.18;;;;;;;;;;5013752;28;20033;-58
2021/07/28 03:52:22;;;;;;;10.45;6.53;;;;;;;;;;5012277;28;20022;-59
2021/07/28 03:54:48;;;;;;;10.52;6.53;;;;;;;;;;5012326;28;20022;-62
2021/07/28 03:57:14;;;;;;;10.88;6.70;;;;;;;;;;5011659;28;20505;-60
2021/07/28 03:59:40;;;;;;;11.07;6.75;;;;;;;;;;5012402;28;20030;-61
2021/07/28 04:02:06;;;;;;;10.50;6.22;;;;;;;;;;5033066;28;20033;-61
2021/07/28 04:04:33;;;;;;;10.63;6.38;;;;;;;;;;5033445;28;20026;-62
2021/07/28 04:06:59;;;;;;;10.35;6.18;;;;;;;;;;5033419;28;20026;-58
2021/07/28 04:09:25;;;;;;;9.13;5.40;;;;;;;;;;5031648;28;20025;-61
2021/07/28 04:11:51;;;;;;;9.25;5.78;;;;;;;;;;5032970;28;20032;-59
2021/07/28 04:14:17;;;;;;;9.30;5.57;;;;;;;;;;5032958;28;20417;-59
2021/07/28 04:16:43;;;;;;;8.65;5.28;;;;;;;;;;5032381;28;20060;-61
2021/07/28 04:19:09;;;;;;;8.95;5.20;;;;;;;;;;5032750;28;20063;-60
2021/07/28 04:21:35;;;;;;;11.40;6.90;;;;;;;;;;5032400;28;20104;-61
2021/07/28 04:24:01;;;;;;;13.65;6.85;;;;;;;;;;5031654;28;20032;-59
2021/07/28 04:26:27;;;;;;;8.55;5.10;;;;;;;;;;5032430;28;20120;-57
2021/07/28 04:28:53;;;;;;;9.10;5.40;;;;;;;;;;5032762;28;20059;-59
2021/07/28 04:31:19;;;;;;;11.35;5.57;;;;;;;;;;5032788;28;20025;-60
2021/07/28 04:33:45;;;;;;;9.15;5.57;;;;;;;;;;5031204;28;20473;-60
2021/07/28 04:36:13;;;;;;;8.70;5.30;;;;;;;;;;5031263;28;20085;-62
2021/07/28 04:38:39;;;;;;;8.88;5.32;;;;;;;;;;5023940;28;20056;-60
2021/07/28 04:41:05;;;;;;;9.52;5.78;;;;;;;;;;5014053;28;20310;-60
2021/07/28 04:43:31;;;;;;;8.50;5.10;;;;;;;;;;5029129;28;20397;-61
2021/07/28 04:46:00;;;;;;;8.80;5.13;;;;;;;;;;5030109;28;20029;-57
2021/07/28 04:48:29;;;;;;;9.70;5.85;;;;;;;;;;5012316;28;20037;-61
2021/07/28 04:50:56;;;;;;;8.80;5.32;;;;;;;;;;5030160;28;20052;-61
2021/07/28 04:53:23;;;;;;;8.90;5.28;;;;;;;;;;5031958;28;20030;-57
2021/07/28 04:55:55;;;;;;;9.77;6.00;;;;;;;;;;5016954;28;20022;-62
2021/07/28 04:58:21;;;;;;;9.73;5.85;;;;;;;;;;5012464;28;20041;-60
2021/07/28 05:00:47;;;;;;;9.18;5.35;;;;;;;;;;5022524;28;20104;-52
2021/07/28 05:03:13;;;;;;;8.60;5.10;;;;;;;;;;5027134;28;20117;-60
2021/07/28 05:05:40;;;;;;;9.35;5.68;;;;;;;;;;5010967;28;20445;-60
2021/07/28 05:08:06;;;;;;;9.30;5.40;;;;;;;;;;5017646;28;20120;-60
2021/07/28 05:10:32;;;;;;;10.13;6.15;;;;;;;;;;5032216;28;20021;-60
2021/07/28 05:12:58;;;;;;;9.70;5.90;;;;;;;;;;5018798;28;20111;-60
2021/07/28 05:15:24;;;;;;;9.40;5.60;;;;;;;;;;5011177;28;20026;-59
2021/07/28 05:17:50;;;;;;;9.80;5.80;;;;;;;;;;5012053;28;20061;-59
2021/07/28 05:20:19;;;;;;;10.23;6.43;;;;;;;;;;5010845;28;20026;-59
2021/07/28 05:22:45;;;;;;;9.75;5.90;;;;;;;;;;5012137;28;20390;-61
2021/07/28 05:25:11;;;;;;;9.88;5.95;;;;;;;;;;5015527;28;20080;-62
2021/07/28 05:27:37;;;;;;;9.15;5.40;;;;;;;;;;5030689;28;20441;-61
2021/07/28 05:30:04;;;;;;;9.88;5.82;;;;;;;;;;5031620;28;20052;-61
2021/07/28 05:32:30;;;;;;;13.45;7.22;;;;;;;;;;5031623;28;20025;-60
2021/07/28 05:34:56;;;;;;;10.35;6.22;;;;;;;;;;5031950;28;20018;-62
2021/07/28 05:37:22;;;;;;;9.60;5.65;;;;;;;;;;5030777;28;20552;-61
2021/07/28 05:39:48;;;;;;;9.98;6.07;;;;;;;;;;5032211;28;20029;-62
2021/07/28 05:42:14;;;;;;;10.85;6.53;;;;;;;;;;5032179;28;20079;-61
2021/07/28 05:44:40;;;;;;;12.48;7.00;;;;;;;;;;5030837;28;20482;-62
2021/07/28 05:47:06;;;;;;;11.90;7.47;;;;;;;;;;5030605;28;20381;-61
2021/07/28 05:49:33;;;;;;;10.63;6.72;;;;;;;;;;5030701;28;20032;-60
2021/07/28 05:51:59;;;;;;;11.00;7.47;;;;;;;;;;5031894;28;20382;-61
2021/07/28 05:54:25;;;;;;;10.88;6.47;;;;;;;;;;5031777;28;20072;-60
2021/07/28 05:56:51;;;;;;;10.80;6.40;;;;;;;;;;5031056;28;20057;-60
2021/07/28 05:59:17;;;;;;;10.48;6.43;;;;;;;;;;5029811;28;20053;-62
2021/07/28 06:01:43;;;;;;;11.68;7.82;;;;;;;;;;5033603;28;20026;-66
2021/07/28 06:04:09;;;;;;;10.02;5.93;;;;;;;;;;5035054;28;20567;-66
2021/07/28 06:06:35;;;;;;;10.77;6.53;;;;;;;;;;5033820;28;20032;-65
2021/07/28 06:09:01;;;;;;;11.85;7.57;;;;;;;;;;5033907;28;20473;-66
2021/07/28 06:11:27;;;;;;;12.80;7.30;;;;;;;;;;5035412;28;20113;-67
2021/07/28 06:13:53;;;;;;;11.15;6.97;;;;;;;;;;5017314;28;20053;-65
2021/07/28 06:16:19;;;;;;;11.07;6.82;;;;;;;;;;5015232;28;20033;-65
2021/07/28 06:18:45;;;;;;;11.18;6.78;;;;;;;;;;5013872;28;20026;-66
2021/07/28 06:21:11;;;;;;;11.10;6.50;;;;;;;;;;5032060;28;20113;-66
2021/07/28 06:23:37;;;;;;;9.93;5.82;;;;;;;;;;5033669;28;20388;-67
2021/07/28 06:26:03;;;;;;;10.57;6.43;;;;;;;;;;5034701;28;20028;-66
2021/07/28 06:28:29;;;;;;;13.07;9.65;;;;;;;;;;5033621;28;20412;-66
2021/07/28 06:30:55;;;;;;;10.90;6.45;;;22.80;99.90;;;;;;5033909;28;20053;-65
2021/07/28 06:33:22;;;;;;;11.10;6.43;;;;;;;;;;5033433;28;20026;-65
2021/07/28 06:35:51;;;;;;;11.65;6.72;;;;;;;;;;5033611;28;20167;-66
2021/07/28 06:38:18;;;;;;;11.65;7.07;;;;;;;;;;5034109;28;20385;-67
2021/07/28 06:40:43;;;;;;;12.25;7.25;;;21.50;99.90;;;;;;5034805;28;20036;-65
2021/07/28 06:43:10;;;;;;;12.23;7.32;;;;;;;;;;5034282;28;20029;-62
2021/07/28 06:45:36;;;;;;;11.73;6.88;;;21.60;99.90;;;;;;5034176;28;20378;-63
2021/07/28 06:48:02;;;;;;;11.82;7.13;;;;;;;;;;5033410;28;20031;-63
2021/07/28 06:50:28;;;;;;;11.60;7.00;;;;;;;;;;5032679;28;20026;-63
2021/07/28 06:52:54;;;;;;;12.00;7.28;;;;;;;;;;5033448;28;20197;-63
2021/07/28 06:55:20;;;;;;;12.25;7.55;;;;;;;;;;5032947;28;20061;-63
2021/07/28 06:57:46;;;;;;;11.63;6.82;;;21.50;99.90;;;;;;5034404;28;20017;-63
2021/07/28 07:00:12;;;;;;;12.82;7.95;;;;;;;;;;5032890;28;20029;-64
2021/07/28 07:02:38;;;;;;;12.00;7.15;;;;;;;;;;5032674;28;20059;-63
2021/07/28 07:05:05;;;;;;;13.77;8.00;;;;;;;;;;5032697;28;20035;-62
2021/07/28 07:07:31;;;;;;;13.05;8.18;;;;;;;;;;5032351;28;20060;-63
2021/07/28 07:09:57;;;;;;;12.98;7.63;;;;;;;;;;5032594;28;20017;-63
2021/07/28 07:12:23;;;;;;;13.20;8.25;;;;;;;;;;5032071;28;20052;-63
2021/07/28 07:14:49;;;;;;;13.80;8.50;;;;;;;;;;5032800;28;20108;-63
2021/07/28 07:17:16;;;;;;;13.07;7.95;;;;;;;;;;5032180;28;20037;-63
2021/07/28 07:19:42;;;;;;;13.50;8.57;;;;;;;;;;5033797;28;20045;-63
2021/07/28 07:22:08;;;;;;;13.30;8.00;;;;;;;;;;5033448;28;20096;-62
2021/07/28 07:24:34;;;;;;;13.70;8.55;;;;;;;;;;5033615;28;20030;-63
2021/07/28 07:27:00;;;;;;;13.90;9.15;;;;;;;;;;5033233;28;20113;-66
2021/07/28 07:29:26;;;;;;;12.98;7.80;;;;;;;;;;5033463;28;20022;-66
2021/07/28 07:31:52;;;;;;;12.38;7.38;;;;;;;;;;5032546;28;20040;-62
2021/07/28 07:34:18;;;;;;;14.32;8.38;;;;;;;;;;5033579;28;20026;-63
2021/07/28 07:36:44;;;;;;;12.00;7.30;;;;;;;;;;5031736;28;20017;-63
2021/07/28 07:39:10;;;;;;;13.65;7.47;;;;;;;;;;5031908;28;20041;-60
2021/07/28 07:41:36;;;;;;;11.25;7.10;;;;;;;;;;5032992;28;20104;-62
2021/07/28 07:44:02;;;;;;;10.40;6.18;;;;;;;;;;5032486;28;20120;-61
2021/07/28 07:46:29;;;;;;;11.00;6.55;;;;;;;;;;5030465;28;20053;-61
2021/07/28 07:48:56;;;;;;;11.70;7.07;;;;;;;;;;5030895;28;20029;-63
2021/07/28 07:51:22;;;;;;;11.35;6.82;;;;;;;;;;5032438;28;20021;-62
2021/07/28 07:53:48;;;;;;;11.88;7.07;;;;;;;;;;5033214;28;20079;-62
2021/07/28 07:56:14;;;;;;;11.05;6.75;;;;;;;;;;5032618;28;20018;-63
2021/07/28 07:58:40;;;;;;;10.65;6.25;;;;;;;;;;5033054;28;20029;-63
2021/07/28 08:01:08;;;;;;;11.75;7.15;;;;;;;;;;5033009;28;20034;-63
2021/07/28 08:03:34;;;;;;;;;;;;;;;;;;5032042;28;20124;-62
2021/07/28 08:06:00;;;;;;;10.68;6.53;;;;;;;;;;5031400;28;20003;-63
2021/07/28 08:08:26;;;;;;;19.42;12.43;;;;;;;;;;5031419;28;20159;-63
2021/07/28 08:10:55;;;;;;;19.70;12.57;;;;;;;;;;5031292;28;20036;-64
2021/07/28 08:13:24;;;;;;;;;;;;;;;;;;5033249;28;20401;-64
2021/07/28 08:15:50;;;;;;;21.30;12.32;;;;;;;;;;5030255;28;19963;-65
2021/07/28 08:18:16;;;;;;;22.00;11.77;;;;;;;;;;5032471;28;20559;-65
2021/07/28 08:20:42;;;;;;;20.13;12.43;;;;;;;;;;5031407;28;20108;-64
2021/07/28 08:23:08;;;;;;;20.77;11.25;;;;;;;;;;5031084;28;20516;-64
2021/07/28 08:25:34;;;;;;;22.13;12.10;;;;;;;;;;5030265;28;20099;-65
2021/07/28 08:28:00;;;;;;;19.83;11.77;;;;;;;;;;5030671;28;20029;-65
2021/07/28 08:30:26;;;;;;;20.85;11.30;;;;;;;;;;5030377;28;20025;-64
2021/07/28 08:32:52;;;;;;;23.75;12.55;;;;;;;;;;5029534;28;20056;-64
2021/07/28 08:35:19;;;;;;;17.90;10.68;;;;;;;;;;5011872;28;20033;-64
2021/07/28 08:37:45;;;;;;;20.02;12.32;;;;;;;;;;5010847;28;20064;-64
2021/07/28 08:40:15;;;;;;;19.90;12.88;;;;;;;;;;5012033;28;20022;-64
2021/07/28 08:42:45;;;;;;;21.70;12.52;;;;;;;;;;5012220;28;20036;-66
2021/07/28 08:45:13;;;;;;;22.60;14.15;;;;;;;;;;5011881;28;20033;-64
2021/07/28 08:47:40;;;;;;;22.88;18.85;;;;;;;;;;5047195;22;20098;-63
2021/07/28 08:50:15;;;;;;;28.10;20.42;;;;;;;;;;5071033;28;20173;-64
2021/07/28 08:52:42;;;;;;;26.17;21.58;;;;;;;;;;5071688;28;20094;-63
2021/07/28 08:55:09;;;;;;;26.38;23.55;;;;;;;;;;5071228;28;20021;-63
2021/07/28 08:57:35;;;;;;;29.55;26.52;;;;;;;;;;5072061;28;20029;-65
2021/07/28 09:00:02;;;;;;;28.27;25.27;;;;;;;;;;5070986;28;20074;-66
2021/07/28 09:02:28;;;;;;;28.33;24.42;;;;;;;;;;5050357;28;20033;-64
2021/07/28 09:04:54;;;;;;;29.73;26.65;;;;;;;;;;5060504;28;20036;-63
2021/07/28 09:07:22;;;;;;;30.17;26.02;;;;;;;;;;5071031;28;20059;-65
2021/07/28 09:09:55;;;;;;;30.45;27.35;;;;;;;;;;5071067;28;20024;-65
2021/07/28 09:12:30;;;;;;;28.63;25.63;;;;;;;;;;5071405;28;20082;-66
2021/07/28 09:15:00;;;;;;;29.98;24.83;;;;;;;;;;5071369;28;20027;-66
2021/07/28 09:17:27;;;;;;;25.10;22.40;;;;;;;;;;5070429;28;20031;-67
2021/07/28 09:19:54;;;;;;;23.60;20.48;;;;;;;;;;5070149;28;20222;-64
2021/07/28 09:22:21;;;;;;;22.63;20.15;;;;;;;;;;5071087;28;20028;-69
2021/07/28 09:25:10;;;;;;;23.00;19.80;;;;;;;;;;5053473;28;20036;-66
2021/07/28 09:27:44;;;;;;;22.33;18.63;;;;;;;;;;5071265;28;20097;-64
2021/07/28 09:30:11;;;;;;;23.73;21.33;;;;;;;;;;5051657;28;20025;-59
2021/07/28 09:32:56;;;;;;;27.25;24.42;;;;;;;;;;5071023;28;20396;-58
2021/07/28 09:35:43;;;;;;;31.17;28.20;;;;;;;;;;5053324;28;20024;-58
2021/07/28 09:38:11;;;;;;;28.70;25.73;;;;;;;;;;5025074;28;20041;-58
2021/07/28 09:40:37;;;;;;;28.98;26.25;;;;;;;;;;5056763;28;20559;-58
2021/07/28 09:43:04;;;;;;;29.23;26.42;;;;;;;;;;5075144;28;20107;-55
2021/07/28 09:45:33;;;;;;;26.92;24.42;;;;;;;;;;5075004;28;20069;-52
2021/07/28 09:47:58;;;;;;;27.42;24.63;;;21.70;99.90;;;;;;5074839;28;20037;-57
2021/07/28 09:50:25;;;;;;;25.13;22.52;;;21.50;99.90;;;;;;5075272;28;20052;-57
2021/07/28 09:53:06;;;;;;;23.73;21.27;;;21.40;99.90;;;;;;5056854;28;20020;-57
2021/07/28 09:55:32;;;;;;;25.30;20.70;;;21.30;99.90;;;;;;5074676;28;20017;-54
2021/07/28 09:57:59;;;;;;;21.65;19.38;;;21.30;99.90;;;;;;5062093;28;20108;-54
2021/07/28 10:00:28;;;;;;;21.63;19.42;;;21.20;99.90;;;;;;5036849;28;20539;-58
2021/07/28 10:03:05;;;;;;;23.23;20.73;;;21.30;99.90;;;;;;5055224;28;20365;-62
2021/07/28 10:05:33;;;;;;;22.35;18.58;;;21.40;99.90;;;;;;5055115;28;20568;-64
2021/07/28 10:08:02;;;;;;;21.80;18.77;;;21.30;99.90;;;;;;5052852;28;20033;-64
2021/07/28 10:10:30;;;;;;;22.98;19.67;;;21.20;99.90;;;;;;5054789;28;20025;-67
2021/07/28 10:12:56;;;;;;;20.85;18.38;;;21.20;99.90;;;;;;5055837;28;20020;-64
2021/07/28 10:15:22;;;;;;;22.02;17.77;;;21.30;99.90;;;;;;5056591;28;20025;-64
2021/07/28 10:17:48;;;;;;;25.48;18.25;;;21.50;99.90;;;;;;5074027;28;20025;-66
2021/07/28 10:20:14;;;;;;;23.00;18.10;;;21.50;99.90;;;;;;5073179;28;20064;-63
2021/07/28 10:22:42;;;;;;;22.67;18.45;;;21.50;99.90;;;;;;5073346;28;20105;-64
2021/07/28 10:25:15;;;;;;;20.33;17.27;;;21.50;99.90;;;;;;5073951;28;20326;-64
2021/07/28 10:27:44;;;;;;;23.98;17.60;;;21.40;99.90;;;;;;5073378;28;20028;-65
2021/07/28 10:30:11;;;;;;;;;;;21.60;99.90;;;;;;5074439;28;20095;-64
2021/07/28 10:32:36;;;;;;;21.85;18.30;;;21.60;99.90;;;;;;5074795;28;19904;-64
2021/07/28 10:35:29;;;;;;;24.58;17.63;;;21.70;99.90;;;;;;5073470;28;20551;-67
2021/07/28 10:37:57;;;;;;;21.88;18.92;;;21.80;99.90;;;;;;5073858;28;20020;-64
2021/07/28 10:40:31;;;;;;;21.52;17.98;;;22.10;99.90;;;;;;5055812;28;20472;-65
2021/07/28 10:42:57;;;;;;;23.33;18.45;;;;;;;;;;5056152;28;20115;-65
2021/07/28 10:45:24;;;;;;;21.08;16.67;;;;;;;;;;5074024;28;20028;-64
2021/07/28 10:47:51;;;;;;;20.63;15.35;;;;;;;;;;5064578;28;20059;-65
2021/07/28 10:50:26;;;;;;;22.30;16.15;;;;;;;;;;5061964;28;20017;-66
2021/07/28 10:52:53;;;;;;;23.83;17.02;;;;;;;;;;5062631;28;20110;-64
2021/07/28 10:55:25;;;;;;;22.45;16.25;;;;;;;;;;4708692;28;10000256;-64
2021/07/28 10:57:54;;;;;;;22.60;17.35;;;;;;;;;;5065384;28;20357;-64
2021/07/28 11:00:38;;;;;;;20.77;16.15;;;;;;;;;;5070710;28;20028;-64
2021/07/28 11:03:14;;;;;;;20.75;16.58;;;;;;;;;;5071005;28;20032;-64
2021/07/28 11:05:41;;;;;;;22.08;14.45;;;;;;;;;;5071079;28;20032;-64
2021/07/28 11:08:07;;;;;;;19.17;13.77;;;;;;;;;;5070562;28;20021;-69
2021/07/28 11:10:46;;;;;;;22.52;14.15;;;;;;;;;;5070502;28;20029;-66
2021/07/28 11:13:13;;;;;;;20.27;15.25;;;;;;;;;;5070238;28;20017;-67
2021/07/28 11:15:40;;;;;;;20.33;14.85;;;;;;;;;;5070277;28;20067;-68
2021/07/28 11:18:06;;;;;;;20.27;14.25;;;;;;;;;;5052304;28;20029;-68
2021/07/28 11:20:32;;;;;;;22.00;14.40;;;;;;;;;;5051817;28;20369;-69
2021/07/28 11:23:17;;;;;;;19.58;13.50;;;;;;;;;;5051412;28;20039;-69
2021/07/28 11:25:43;;;;;;;20.40;13.93;;;;;;;;;;5052499;28;20024;-69
2021/07/28 11:28:11;;;;;;;19.42;13.23;;;;;;;;;;5052445;28;20031;-69
2021/07/28 11:30:37;;;;;;;20.20;14.00;;;;;;;;;;5070946;28;20103;-68
2021/07/28 11:33:13;;;;;;;19.38;14.13;;;;;;;;;;5052835;28;20128;-69
2021/07/28 11:35:46;;;;;;;19.85;14.20;;;;;;;;;;5051850;28;20036;-69
2021/07/28 11:38:13;;;;;;;19.25;12.93;;;;;;;;;;5069949;28;20464;-68
2021/07/28 11:40:42;;;;;;;19.92;13.40;;;;;;;;;;5070040;28;20040;-67
2021/07/28 11:43:26;;;;;;;19.80;13.32;;;;;;;;;;5070155;28;20097;-67
2021/07/28 11:45:52;;;;;;;18.05;13.32;;;;;;;;;;5068651;28;20029;-65
2021/07/28 11:48:32;;;;;;;19.15;12.75;;;;;;;;;;5054963;28;20032;-65
2021/07/28 11:50:59;;;;;;;17.95;13.50;;;;;;;;;;5070499;28;20020;-64
2021/07/28 11:53:25;;;;;;;16.80;12.45;;;;;;;;;;5071764;28;20464;-66
2021/07/28 11:55:55;;;;;;;19.05;12.20;;;;;;;;;;5050894;28;20039;-66
2021/07/28 11:58:22;;;;;;;18.88;12.50;;;;;;;;;;5059262;28;20035;-66
2021/07/28 12:00:49;;;;;;;18.40;13.23;;;;;;;;;;5072454;28;20029;-66
2021/07/28 12:03:28;;;;;;;17.95;13.15;;;;;;;;;;5055207;28;20024;-66
2021/07/28 12:05:57;;;;;;;17.90;12.80;;;;;;;;;;5072393;28;20028;-66
2021/07/28 12:08:30;;;;;;;17.42;12.68;;;;;;;;;;5054538;28;20032;-65
2021/07/28 12:11:06;;;;;;;16.92;12.30;;;;;;;;;;5053630;28;20511;-66
2021/07/28 12:13:43;;;;;;;17.10;12.00;;;;;;;;;;5072806;28;20037;-65
2021/07/28 12:16:09;;;;;;;16.35;11.63;;;;;;;;;;5072390;28;20078;-65
2021/07/28 12:18:50;;;;;;;17.55;11.98;;;;;;;;;;5073052;28;20067;-66
2021/07/28 12:21:16;;;;;;;15.95;12.13;;;;;;;;;;5072739;28;20108;-65
2021/07/28 12:23:50;;;;;;;17.48;12.68;;;;;;;;;;5073510;28;20082;-65
2021/07/28 12:26:16;;;;;;;17.30;11.80;;;;;;;;;;5054290;28;20020;-66
2021/07/28 12:28:51;;;;;;;17.50;12.07;;;;;;;;;;5071876;28;20024;-65
2021/07/28 12:31:27;;;;;;;16.48;11.50;;;;;;;;;;5054528;28;20354;-65
2021/07/28 12:33:53;;;;;;;15.88;11.57;;;;;;;;;;5071901;28;20020;-65
2021/07/28 12:36:29;;;;;;;18.02;11.50;;;;;;;;;;5071976;28;20031;-65
2021/07/28 12:38:55;;;;;;;16.85;12.07;;;;;;;;;;5071866;28;20025;-65
2021/07/28 12:41:23;;;;;;;16.35;12.00;;;;;;;;;;5071953;28;20433;-65
2021/07/28 12:43:50;;;;;;;17.65;12.63;;;;;;;;;;5071972;28;20041;-66
2021/07/28 12:46:16;;;;;;;16.65;12.77;;;;;;;;;;5053029;28;20044;-65
2021/07/28 12:48:43;;;;;;;17.33;12.52;;;;;;;;;;5053434;28;20396;-65
2021/07/28 12:51:09;;;;;;;18.85;12.77;;;;;;;;;;5053924;28;20020;-66
2021/07/28 12:53:36;;;;;;;18.75;12.80;;;;;;;;;;5053549;28;20035;-65
2021/07/28 12:56:02;;;;;;;16.75;12.55;;;;;;;;;;5070716;28;20437;-65
2021/07/28 12:58:28;;;;;;;17.33;12.50;;;;;;;;;;5053363;28;20396;-67
2021/07/28 13:00:55;;;;;;;17.90;12.15;;;;;;;;;;5053051;28;20081;-66
2021/07/28 13:03:23;;;;;;;17.70;12.15;;;;;;;;;;5052951;28;20082;-66
2021/07/28 13:05:51;;;;;;;18.97;12.73;;;;;;;;;;5053258;28;20024;-66
2021/07/28 13:08:18;;;;;;;17.40;12.23;;;;;;;;;;5070941;28;20352;-67
2021/07/28 13:10:45;;;;;;;16.05;12.30;;;;;;;;;;5071012;28;20020;-66
2021/07/28 13:13:11;;;;;;;16.83;12.13;;;;;;;;;;5071420;28;20169;-66
2021/07/28 13:15:41;;;;;;;17.80;12.30;;;;;;;;;;5071007;28;20021;-66
2021/07/28 13:18:07;;;;;;;16.15;12.10;;;;;;;;;;4701985;28;10001171;-66
2021/07/28 13:20:33;;;;;;;16.55;12.10;;;;;;;;;;5067629;28;20036;-66
2021/07/28 13:23:00;;;;;;;17.45;12.13;;;;;;;;;;5050246;28;20537;-66
2021/07/28 13:25:26;;;;;;;18.30;13.38;;;;;;;;;;5051952;28;20020;-66
2021/07/28 13:27:52;;;;;;;16.92;12.52;;;;;;;;;;5070800;28;20077;-66
2021/07/28 13:30:19;;;;;;;16.17;12.18;;;;;;;;;;5071110;28;20032;-66
2021/07/28 13:32:45;;;;;;;17.92;12.10;;;;;;;;;;5052807;28;20066;-67
2021/07/28 13:35:11;;;;;;;15.73;11.60;;;;;;;;;;4718614;28;9999582;-66
2021/07/28 13:37:38;;;;;;;16.40;12.07;;;;;;;;;;5067133;28;20488;-66
2021/07/28 13:40:09;;;;;;;16.42;11.43;;;;;;;;;;5068425;28;20094;-66
2021/07/28 13:42:45;;;;;;;17.08;11.55;;;;;;;;;;5050111;28;20051;-66
2021/07/28 13:45:11;;;;;;;16.60;11.90;;;;;;;;;;5067503;28;20069;-66
2021/07/28 13:47:43;;;;;;;19.02;12.23;;;;;;;;;;5067765;28;20078;-66
2021/07/28 13:50:09;;;;;;;17.20;11.93;;;;;;;;;;5067724;28;20077;-66
2021/07/28 13:52:36;;;;;;;16.42;11.98;;;;;;;;;;5049461;28;20097;-67
2021/07/28 13:55:02;;;;;;;16.20;11.82;;;;;;;;;;5048968;28;20024;-65
2021/07/28 13:57:28;;;;;;;17.30;11.65;;;;;;;;;;5048585;28;20078;-65
2021/07/28 13:59:54;;;;;;;17.58;12.15;;;;;;;;;;5067690;28;20028;-65
2021/07/28 14:02:20;;;;;;;17.02;11.88;;;;;;;;;;5049603;28;20108;-66
2021/07/28 14:04:47;;;;;;;15.77;11.80;;;;;;;;;;5049797;28;20086;-65
2021/07/28 14:07:13;;;;;;;17.48;12.02;;;;;;;;;;5049000;28;20119;-66
2021/07/28 14:09:39;;;;;;;16.00;11.60;;;;;;;;;;5067504;28;20112;-65
2021/07/28 14:12:06;;;;;;;16.52;12.45;;;;;;;;;;5067201;28;20029;-65
2021/07/28 14:14:33;;;;;;;16.10;11.82;;;;;;;;;;5067515;28;20019;-66
2021/07/28 14:17:03;;;;;;;16.45;11.60;;;;;;;;;;5049260;28;20017;-66
2021/07/28 14:19:29;;;;;;;15.95;11.70;;;;;;;;;;5050554;28;20021;-66
2021/07/28 14:21:55;;;;;;;17.52;12.07;;;;;;;;;;5068582;28;20060;-66
2021/07/28 14:24:21;;;;;;;16.98;12.18;;;;;;;;;;5053883;28;20430;-66